Αναφορές Αεροδρομίων

 

KSJC - San Jose, California, USA
Distance from station: ΒΑ 14km
Ενημερώθηκε: 28/10/2021 16:53
Αίθριος
Αίθριος
 Ανεμος από ΑΝΑ
Ανεμος: ΑΝΑ 6 km/h
Θερμοκρασία: 14°C
Σημείο Δρόσου: 12°C
Υγρασία: 88%
Βαρόμετρο: 1021.7 hPa
Clouds: Αίθριος
Visibility: 16 km
2021/10/28 13:53 KSJC 281353Z 11003KT 10SM CLR 14/12 A3017 RMK AO2 SLP216 T01390122
KNUQ - Moffett Nas/Mtn, California, USA
Distance from station: Β 14km
Ενημερώθηκε: 28/10/2021 16:35
Mist, Αίθριος
Mist, Αίθριος
 Ανεμος από calm
Ανεμος: Απνοια
Θερμοκρασία: 13°C
Σημείο Δρόσου: 12°C
Υγρασία: 94%
Βαρόμετρο: 1021.7 hPa
Περίληψη: Mist
Clouds: Αίθριος
Visibility: 5 km
2021/10/28 13:35 KNUQ 281335Z AUTO 00000KT 3SM BR CLR 13/12 A3017 RMK AO2
 
KPAO - Palo Alto, California, USA
Distance from station: ΒΒΔ 23km
Ενημερώθηκε: 28/10/2021 16:47
Αίθριος
Αίθριος
 Ανεμος από varies
Ανεμος: varies 6 km/h
Θερμοκρασία: 12°C
Σημείο Δρόσου: 11°C
Υγρασία: 94%
Βαρόμετρο: 1022 hPa
Clouds: Αίθριος
Visibility: 16 km
2021/10/28 13:47 KPAO 281347Z VRB03KT 10SM SKC 12/11 A3018
KRHV - San Jose/Reid, California, USA
Distance from station: ΑΒΑ 19km
Ενημερώθηκε: 28/10/2021 16:47
Αίθριος
Αίθριος
 Ανεμος από calm
Ανεμος: Απνοια
Θερμοκρασία: 13°C
Σημείο Δρόσου: 12°C
Υγρασία: 94%
Βαρόμετρο: 1022 hPa
Clouds: Αίθριος
Visibility: 16 km
2021/10/28 13:47 KRHV 281347Z 00000KT 10SM SKC 13/12 A3018
 
KOAK - Oakland, California, USA
Distance from station: ΒΒΔ 50km
Ενημερώθηκε: 28/10/2021 16:53
Shallow fog, Αίθριος
Shallow fog, Αίθριος
 Ανεμος από ΒΑ
Ανεμος: ΒΑ 6 km/h
Θερμοκρασία: 13°C
Σημείο Δρόσου: 12°C
Υγρασία: 94%
Βαρόμετρο: 1022 hPa
Περίληψη: Shallow Fog
Clouds: Αίθριος
Visibility: 16 km
2021/10/28 13:53 KOAK 281353Z 04003KT 10SM MIFG CLR 13/12 A3018 RMK AO2 SLP218 T01280117
KSQL - San Carlos Airpo, California, USA
Distance from station: ΒΔ 34km
Ενημερώθηκε: 28/10/2021 16:55
Αίθριος
Αίθριος
 Ανεμος από calm
Ανεμος: Απνοια
Θερμοκρασία: 14°C
Σημείο Δρόσου: 13°C
Υγρασία: 94%
Βαρόμετρο: 1022 hPa
Clouds: Αίθριος
Visibility: 16 km
2021/10/28 13:55 KSQL 281355Z AUTO 00000KT 10SM CLR 14/13 A3018 RMK AO2
 
KSFO - San Francisco, California, USA
Distance from station: ΒΔ 49km
Ενημερώθηκε: 28/10/2021 15:56
Few Clouds
Few Clouds
 Ανεμος από calm
Ανεμος: Απνοια
Θερμοκρασία: 14°C
Σημείο Δρόσου: 13°C
Υγρασία: 94%
Βαρόμετρο: 1021.7 hPa
Clouds: Few Clouds
Visibility: 16 km
Cloud details: Few Clouds 244 m
2021/10/28 12:56 KSFO 281256Z 00000KT 10SM FEW008 14/13 A3017 RMK AO2 SLP217 T01440128
KE16 - San Martin, California, USA
Distance from station: ΑΝΑ 43km
Ενημερώθηκε: 28/10/2021 16:35
Αίθριος
Αίθριος
 Ανεμος από Β
Ανεμος: Β 6 km/h
Θερμοκρασία: 12°C
Σημείο Δρόσου: 12°C
Υγρασία: 100%
Βαρόμετρο: 1022.7 hPa
Clouds: Αίθριος
Visibility: 16 km
2021/10/28 13:35 KE16 281335Z AUTO 01003KT 10SM CLR 12/12 A3020 RMK AO2 PWINO PNO
 
KWVI - Watsonville, California, USA
Distance from station: ΝΝΑ 44km
Ενημερώθηκε: 28/10/2021 16:53
Αίθριος
Αίθριος
 Ανεμος από calm
Ανεμος: Απνοια
Θερμοκρασία: 12°C
Σημείο Δρόσου: 12°C
Υγρασία: 100%
Βαρόμετρο: 1021.3 hPa
Clouds: Αίθριος
Visibility: 16 km
2021/10/28 13:53 KWVI 281353Z AUTO 00000KT 10SM CLR 12/12 A3016 RMK AO2 SLP213 T01170117
KHAF - Half Moon Bay, California, USA
Distance from station: ΔΒΔ 50km
Ενημερώθηκε: 28/10/2021 16:55
Mist, Αίθριος
Mist, Αίθριος
 Ανεμος από calm
Ανεμος: Απνοια
Θερμοκρασία: 13°C
Σημείο Δρόσου: 13°C
Υγρασία: 100%
Βαρόμετρο: 1021.3 hPa
Περίληψη: Mist
Clouds: Αίθριος
Visibility: 2 km
2021/10/28 13:55 KHAF 281355Z AUTO 00000KT 1 1/4SM BR CLR 13/13 A3016 RMK
 
KHWD - Hayward, California, USA
Distance from station: Β 44km
Ενημερώθηκε: 28/10/2021 16:54
Αίθριος
Αίθριος
 Ανεμος από Α
Ανεμος: Α 6 km/h
Θερμοκρασία: 14°C
Σημείο Δρόσου: 12°C
Υγρασία: 88%
Βαρόμετρο: 1021.7 hPa
Clouds: Αίθριος
Visibility: 16 km
2021/10/28 13:54 KHWD 281354Z 08003KT 10SM CLR 14/12 A3017 RMK AO2 SLP224 T01440117
KLVK - Livermore, California, USA
Distance from station: ΒΒΑ 51km
Ενημερώθηκε: 28/10/2021 16:53
Αίθριος
Αίθριος
 Ανεμος από ΑΒΑ
Ανεμος: ΑΒΑ 6 km/h
Θερμοκρασία: 12°C
Σημείο Δρόσου: 11°C
Υγρασία: 94%
Βαρόμετρο: 1022 hPa
Clouds: Αίθριος
Visibility: 16 km
2021/10/28 13:53 KLVK 281353Z 06003KT 10SM CLR 12/11 A3018 RMK AO2 SLP216 T01220111